sensor_id;sensor_type;location;lat;lon;timestamp;P1;durP1;ratioP1;P2;durP2;ratioP2
80101;SDS011;69407;44.966;19.622;2023-07-13T00:01:29;11.57;;;4.95;;
80101;SDS011;69407;44.966;19.622;2023-07-13T00:03:56;11.52;;;4.90;;
80101;SDS011;69407;44.966;19.622;2023-07-13T00:06:22;10.68;;;4.63;;
80101;SDS011;69407;44.966;19.622;2023-07-13T00:08:48;13.52;;;5.57;;
80101;SDS011;69407;44.966;19.622;2023-07-13T00:11:14;12.50;;;5.00;;
80101;SDS011;69407;44.966;19.622;2023-07-13T00:13:41;9.88;;;5.18;;
80101;SDS011;69407;44.966;19.622;2023-07-13T00:16:07;13.68;;;4.88;;
80101;SDS011;69407;44.966;19.622;2023-07-13T00:18:34;10.43;;;4.30;;
80101;SDS011;69407;44.966;19.622;2023-07-13T00:21:00;10.88;;;4.60;;
80101;SDS011;69407;44.966;19.622;2023-07-13T00:23:30;9.90;;;4.50;;
80101;SDS011;69407;44.966;19.622;2023-07-13T00:25:59;11.20;;;4.75;;
80101;SDS011;69407;44.966;19.622;2023-07-13T00:28:25;14.07;;;4.70;;
80101;SDS011;69407;44.966;19.622;2023-07-13T00:30:50;10.05;;;4.97;;
80101;SDS011;69407;44.966;19.622;2023-07-13T00:33:16;13.23;;;4.82;;
80101;SDS011;69407;44.966;19.622;2023-07-13T00:35:41;11.60;;;5.57;;
80101;SDS011;69407;44.966;19.622;2023-07-13T00:38:08;11.68;;;5.05;;
80101;SDS011;69407;44.966;19.622;2023-07-13T00:40:34;11.40;;;5.15;;
80101;SDS011;69407;44.966;19.622;2023-07-13T00:43:00;11.35;;;4.82;;
80101;SDS011;69407;44.966;19.622;2023-07-13T00:47:51;11.32;;;4.65;;
80101;SDS011;69407;44.966;19.622;2023-07-13T00:50:16;7.47;;;4.47;;
80101;SDS011;69407;44.966;19.622;2023-07-13T00:52:46;13.75;;;4.38;;
80101;SDS011;69407;44.966;19.622;2023-07-13T00:55:14;10.75;;;4.38;;
80101;SDS011;69407;44.966;19.622;2023-07-13T00:57:41;12.45;;;4.95;;
80101;SDS011;69407;44.966;19.622;2023-07-13T01:00:07;9.90;;;4.00;;
80101;SDS011;69407;44.966;19.622;2023-07-13T01:02:34;12.70;;;4.30;;
80101;SDS011;69407;44.966;19.622;2023-07-13T01:05:08;12.73;;;4.72;;
80101;SDS011;69407;44.966;19.622;2023-07-13T01:07:44;13.27;;;4.18;;
80101;SDS011;69407;44.966;19.622;2023-07-13T01:10:13;9.43;;;4.72;;
80101;SDS011;69407;44.966;19.622;2023-07-13T01:12:39;8.50;;;4.53;;
80101;SDS011;69407;44.966;19.622;2023-07-13T01:15:05;9.93;;;4.80;;
80101;SDS011;69407;44.966;19.622;2023-07-13T01:17:51;12.80;;;3.75;;
80101;SDS011;69407;44.966;19.622;2023-07-13T01:20:16;11.35;;;4.75;;
80101;SDS011;69407;44.966;19.622;2023-07-13T01:22:42;8.02;;;3.90;;
80101;SDS011;69407;44.966;19.622;2023-07-13T01:25:08;8.25;;;3.72;;
80101;SDS011;69407;44.966;19.622;2023-07-13T01:27:33;8.20;;;4.25;;
80101;SDS011;69407;44.966;19.622;2023-07-13T01:29:59;8.88;;;4.70;;
80101;SDS011;69407;44.966;19.622;2023-07-13T01:32:28;11.52;;;4.20;;
80101;SDS011;69407;44.966;19.622;2023-07-13T01:34:56;9.77;;;4.13;;
80101;SDS011;69407;44.966;19.622;2023-07-13T01:37:22;13.57;;;4.20;;
80101;SDS011;69407;44.966;19.622;2023-07-13T01:39:49;8.55;;;3.75;;
80101;SDS011;69407;44.966;19.622;2023-07-13T01:42:15;11.63;;;4.75;;
80101;SDS011;69407;44.966;19.622;2023-07-13T01:44:40;11.48;;;4.47;;
80101;SDS011;69407;44.966;19.622;2023-07-13T01:47:06;8.85;;;4.40;;
80101;SDS011;69407;44.966;19.622;2023-07-13T01:49:32;8.68;;;4.30;;
80101;SDS011;69407;44.966;19.622;2023-07-13T01:51:57;11.00;;;4.63;;
80101;SDS011;69407;44.966;19.622;2023-07-13T01:54:23;12.73;;;4.70;;
80101;SDS011;69407;44.966;19.622;2023-07-13T01:56:48;7.85;;;4.15;;
80101;SDS011;69407;44.966;19.622;2023-07-13T01:59:14;10.88;;;3.88;;
80101;SDS011;69407;44.966;19.622;2023-07-13T02:01:39;9.75;;;4.03;;
80101;SDS011;69407;44.966;19.622;2023-07-13T02:04:05;15.20;;;4.65;;
80101;SDS011;69407;44.966;19.622;2023-07-13T02:06:31;14.15;;;5.38;;
80101;SDS011;69407;44.966;19.622;2023-07-13T02:08:57;9.02;;;4.20;;
80101;SDS011;69407;44.966;19.622;2023-07-13T02:11:23;13.70;;;4.20;;
80101;SDS011;69407;44.966;19.622;2023-07-13T02:13:50;10.40;;;3.78;;
80101;SDS011;69407;44.966;19.622;2023-07-13T02:16:15;7.47;;;3.78;;
80101;SDS011;69407;44.966;19.622;2023-07-13T02:18:41;7.00;;;3.53;;
80101;SDS011;69407;44.966;19.622;2023-07-13T02:21:06;10.85;;;4.13;;
80101;SDS011;69407;44.966;19.622;2023-07-13T02:23:32;10.68;;;3.58;;
80101;SDS011;69407;44.966;19.622;2023-07-13T02:25:58;11.95;;;4.07;;
80101;SDS011;69407;44.966;19.622;2023-07-13T02:28:25;10.93;;;4.38;;
80101;SDS011;69407;44.966;19.622;2023-07-13T02:30:51;12.35;;;4.65;;
80101;SDS011;69407;44.966;19.622;2023-07-13T02:33:16;13.02;;;4.80;;
80101;SDS011;69407;44.966;19.622;2023-07-13T02:35:42;11.02;;;4.68;;
80101;SDS011;69407;44.966;19.622;2023-07-13T02:38:07;15.32;;;5.15;;
80101;SDS011;69407;44.966;19.622;2023-07-13T02:40:33;17.80;;;5.50;;
80101;SDS011;69407;44.966;19.622;2023-07-13T02:43:00;11.02;;;4.53;;
80101;SDS011;69407;44.966;19.622;2023-07-13T02:45:26;15.27;;;4.45;;
80101;SDS011;69407;44.966;19.622;2023-07-13T02:47:52;14.73;;;5.80;;
80101;SDS011;69407;44.966;19.622;2023-07-13T02:50:18;17.35;;;5.53;;
80101;SDS011;69407;44.966;19.622;2023-07-13T02:52:44;12.77;;;5.70;;
80101;SDS011;69407;44.966;19.622;2023-07-13T02:55:09;12.80;;;5.57;;
80101;SDS011;69407;44.966;19.622;2023-07-13T02:57:35;17.25;;;5.82;;
80101;SDS011;69407;44.966;19.622;2023-07-13T03:00:01;19.95;;;6.38;;
80101;SDS011;69407;44.966;19.622;2023-07-13T03:02:30;19.00;;;6.20;;
80101;SDS011;69407;44.966;19.622;2023-07-13T03:04:57;20.42;;;6.97;;
80101;SDS011;69407;44.966;19.622;2023-07-13T03:07:23;16.25;;;6.28;;
80101;SDS011;69407;44.966;19.622;2023-07-13T03:09:54;13.77;;;5.57;;
80101;SDS011;69407;44.966;19.622;2023-07-13T03:12:23;18.42;;;5.50;;
80101;SDS011;69407;44.966;19.622;2023-07-13T03:14:49;14.55;;;5.93;;
80101;SDS011;69407;44.966;19.622;2023-07-13T03:17:15;21.08;;;6.20;;
80101;SDS011;69407;44.966;19.622;2023-07-13T03:19:40;13.75;;;5.65;;
80101;SDS011;69407;44.966;19.622;2023-07-13T03:22:06;13.25;;;6.07;;
80101;SDS011;69407;44.966;19.622;2023-07-13T03:24:34;14.82;;;5.50;;
80101;SDS011;69407;44.966;19.622;2023-07-13T03:27:04;16.58;;;5.43;;
80101;SDS011;69407;44.966;19.622;2023-07-13T03:29:30;13.50;;;5.40;;
80101;SDS011;69407;44.966;19.622;2023-07-13T03:31:56;11.82;;;5.32;;
80101;SDS011;69407;44.966;19.622;2023-07-13T03:34:21;17.55;;;5.93;;
80101;SDS011;69407;44.966;19.622;2023-07-13T03:36:47;12.20;;;5.28;;
80101;SDS011;69407;44.966;19.622;2023-07-13T03:39:12;18.88;;;5.85;;
80101;SDS011;69407;44.966;19.622;2023-07-13T03:41:38;19.77;;;6.22;;
80101;SDS011;69407;44.966;19.622;2023-07-13T03:44:03;15.43;;;4.82;;
80101;SDS011;69407;44.966;19.622;2023-07-13T03:46:29;12.00;;;5.25;;
80101;SDS011;69407;44.966;19.622;2023-07-13T03:48:55;11.65;;;5.60;;
80101;SDS011;69407;44.966;19.622;2023-07-13T03:51:21;19.77;;;6.05;;
80101;SDS011;69407;44.966;19.622;2023-07-13T03:53:47;12.85;;;5.13;;
80101;SDS011;69407;44.966;19.622;2023-07-13T03:56:13;17.83;;;6.00;;
80101;SDS011;69407;44.966;19.622;2023-07-13T03:58:40;13.38;;;6.45;;
80101;SDS011;69407;44.966;19.622;2023-07-13T04:03:34;28.05;;;8.07;;
80101;SDS011;69407;44.966;19.622;2023-07-13T04:06:00;25.17;;;9.35;;
80101;SDS011;69407;44.966;19.622;2023-07-13T04:08:31;25.48;;;8.45;;
80101;SDS011;69407;44.966;19.622;2023-07-13T04:10:59;21.40;;;7.90;;
80101;SDS011;69407;44.966;19.622;2023-07-13T04:13:25;21.45;;;7.68;;
80101;SDS011;69407;44.966;19.622;2023-07-13T04:15:51;28.67;;;7.25;;
80101;SDS011;69407;44.966;19.622;2023-07-13T04:18:18;24.58;;;7.20;;
80101;SDS011;69407;44.966;19.622;2023-07-13T04:20:45;19.75;;;8.05;;
80101;SDS011;69407;44.966;19.622;2023-07-13T04:23:14;26.02;;;7.00;;
80101;SDS011;69407;44.966;19.622;2023-07-13T04:25:43;20.38;;;6.40;;
80101;SDS011;69407;44.966;19.622;2023-07-13T04:28:14;21.20;;;7.63;;
80101;SDS011;69407;44.966;19.622;2023-07-13T04:30:42;15.23;;;5.70;;
80101;SDS011;69407;44.966;19.622;2023-07-13T04:33:08;31.02;;;7.63;;
80101;SDS011;69407;44.966;19.622;2023-07-13T04:35:34;20.80;;;6.50;;
80101;SDS011;69407;44.966;19.622;2023-07-13T04:38:00;17.85;;;7.57;;
80101;SDS011;69407;44.966;19.622;2023-07-13T04:40:26;22.95;;;7.00;;
80101;SDS011;69407;44.966;19.622;2023-07-13T04:42:52;18.88;;;7.50;;
80101;SDS011;69407;44.966;19.622;2023-07-13T04:45:18;20.25;;;9.35;;
80101;SDS011;69407;44.966;19.622;2023-07-13T04:47:44;28.02;;;10.93;;
80101;SDS011;69407;44.966;19.622;2023-07-13T04:50:12;25.90;;;9.80;;
80101;SDS011;69407;44.966;19.622;2023-07-13T04:52:40;20.60;;;9.57;;
80101;SDS011;69407;44.966;19.622;2023-07-13T04:55:07;17.42;;;6.93;;
80101;SDS011;69407;44.966;19.622;2023-07-13T04:57:33;11.25;;;6.13;;
80101;SDS011;69407;44.966;19.622;2023-07-13T04:59:58;18.00;;;6.70;;
80101;SDS011;69407;44.966;19.622;2023-07-13T05:02:26;20.20;;;7.07;;
80101;SDS011;69407;44.966;19.622;2023-07-13T05:04:53;15.68;;;5.75;;
80101;SDS011;69407;44.966;19.622;2023-07-13T05:07:18;15.88;;;6.20;;
80101;SDS011;69407;44.966;19.622;2023-07-13T05:09:44;13.45;;;6.28;;
80101;SDS011;69407;44.966;19.622;2023-07-13T05:12:09;13.25;;;6.28;;
80101;SDS011;69407;44.966;19.622;2023-07-13T05:14:35;16.88;;;6.85;;
80101;SDS011;69407;44.966;19.622;2023-07-13T05:17:01;19.60;;;7.53;;
80101;SDS011;69407;44.966;19.622;2023-07-13T05:19:26;22.13;;;7.53;;
80101;SDS011;69407;44.966;19.622;2023-07-13T05:21:52;15.70;;;7.45;;
80101;SDS011;69407;44.966;19.622;2023-07-13T05:24:18;15.77;;;8.25;;
80101;SDS011;69407;44.966;19.622;2023-07-13T05:26:44;15.25;;;6.82;;
80101;SDS011;69407;44.966;19.622;2023-07-13T05:29:09;23.90;;;7.03;;
80101;SDS011;69407;44.966;19.622;2023-07-13T05:31:35;16.40;;;8.02;;
80101;SDS011;69407;44.966;19.622;2023-07-13T05:34:01;13.90;;;6.68;;
80101;SDS011;69407;44.966;19.622;2023-07-13T05:36:27;17.45;;;7.03;;
80101;SDS011;69407;44.966;19.622;2023-07-13T05:38:52;16.05;;;6.82;;
80101;SDS011;69407;44.966;19.622;2023-07-13T05:41:18;18.75;;;7.32;;
80101;SDS011;69407;44.966;19.622;2023-07-13T05:43:43;14.20;;;6.97;;
80101;SDS011;69407;44.966;19.622;2023-07-13T05:46:09;14.60;;;7.03;;
80101;SDS011;69407;44.966;19.622;2023-07-13T05:48:34;12.73;;;6.45;;
80101;SDS011;69407;44.966;19.622;2023-07-13T05:51:00;39.90;;;7.93;;
80101;SDS011;69407;44.966;19.622;2023-07-13T05:53:26;24.90;;;8.43;;
80101;SDS011;69407;44.966;19.622;2023-07-13T05:55:53;20.85;;;8.23;;
80101;SDS011;69407;44.966;19.622;2023-07-13T06:00:45;18.80;;;7.30;;
80101;SDS011;69407;44.966;19.622;2023-07-13T06:03:11;17.00;;;7.18;;
80101;SDS011;69407;44.966;19.622;2023-07-13T06:05:37;11.95;;;6.32;;
80101;SDS011;69407;44.966;19.622;2023-07-13T06:08:04;13.75;;;5.65;;
80101;SDS011;69407;44.966;19.622;2023-07-13T06:10:32;11.57;;;6.10;;
80101;SDS011;69407;44.966;19.622;2023-07-13T06:12:58;12.20;;;6.45;;
80101;SDS011;69407;44.966;19.622;2023-07-13T06:15:23;11.65;;;6.40;;
80101;SDS011;69407;44.966;19.622;2023-07-13T06:17:49;12.95;;;6.97;;
80101;SDS011;69407;44.966;19.622;2023-07-13T06:20:14;12.98;;;8.38;;
80101;SDS011;69407;44.966;19.622;2023-07-13T06:22:40;15.40;;;6.95;;
80101;SDS011;69407;44.966;19.622;2023-07-13T06:25:05;14.82;;;7.40;;
80101;SDS011;69407;44.966;19.622;2023-07-13T06:27:31;14.57;;;7.53;;
80101;SDS011;69407;44.966;19.622;2023-07-13T06:29:57;16.83;;;8.32;;
80101;SDS011;69407;44.966;19.622;2023-07-13T06:32:22;14.82;;;7.30;;
80101;SDS011;69407;44.966;19.622;2023-07-13T06:34:48;13.25;;;7.25;;
80101;SDS011;69407;44.966;19.622;2023-07-13T06:37:13;9.52;;;6.65;;
80101;SDS011;69407;44.966;19.622;2023-07-13T06:39:39;11.68;;;8.13;;
80101;SDS011;69407;44.966;19.622;2023-07-13T06:42:05;11.23;;;6.90;;
80101;SDS011;69407;44.966;19.622;2023-07-13T06:44:31;11.23;;;7.20;;
80101;SDS011;69407;44.966;19.622;2023-07-13T06:46:56;13.85;;;7.25;;
80101;SDS011;69407;44.966;19.622;2023-07-13T06:49:21;12.60;;;7.30;;
80101;SDS011;69407;44.966;19.622;2023-07-13T06:51:47;12.32;;;6.13;;
80101;SDS011;69407;44.966;19.622;2023-07-13T06:54:13;15.90;;;6.70;;
80101;SDS011;69407;44.966;19.622;2023-07-13T06:56:38;11.77;;;6.32;;
80101;SDS011;69407;44.966;19.622;2023-07-13T06:59:04;13.68;;;6.28;;
80101;SDS011;69407;44.966;19.622;2023-07-13T07:01:29;11.10;;;6.63;;
80101;SDS011;69407;44.966;19.622;2023-07-13T07:03:55;12.90;;;6.43;;
80101;SDS011;69407;44.966;19.622;2023-07-13T07:06:21;11.75;;;5.40;;
80101;SDS011;69407;44.966;19.622;2023-07-13T07:08:51;14.63;;;5.72;;
80101;SDS011;69407;44.966;19.622;2023-07-13T07:11:19;15.85;;;5.43;;
80101;SDS011;69407;44.966;19.622;2023-07-13T07:13:47;10.02;;;5.22;;
80101;SDS011;69407;44.966;19.622;2023-07-13T07:16:13;10.85;;;4.45;;
80101;SDS011;69407;44.966;19.622;2023-07-13T07:18:39;14.25;;;5.63;;
80101;SDS011;69407;44.966;19.622;2023-07-13T07:21:04;12.13;;;5.45;;
80101;SDS011;69407;44.966;19.622;2023-07-13T07:23:30;10.73;;;4.25;;
80101;SDS011;69407;44.966;19.622;2023-07-13T07:25:55;11.00;;;4.78;;
80101;SDS011;69407;44.966;19.622;2023-07-13T07:28:21;16.60;;;4.60;;
80101;SDS011;69407;44.966;19.622;2023-07-13T07:30:47;11.02;;;4.70;;
80101;SDS011;69407;44.966;19.622;2023-07-13T07:33:13;13.43;;;4.88;;
80101;SDS011;69407;44.966;19.622;2023-07-13T07:35:39;13.10;;;5.07;;
80101;SDS011;69407;44.966;19.622;2023-07-13T07:38:05;15.07;;;4.80;;
80101;SDS011;69407;44.966;19.622;2023-07-13T07:40:31;11.05;;;4.63;;
80101;SDS011;69407;44.966;19.622;2023-07-13T07:42:57;14.43;;;4.93;;
80101;SDS011;69407;44.966;19.622;2023-07-13T07:45:23;11.93;;;4.25;;
80101;SDS011;69407;44.966;19.622;2023-07-13T07:47:50;14.55;;;4.75;;
80101;SDS011;69407;44.966;19.622;2023-07-13T07:50:15;13.55;;;4.75;;
80101;SDS011;69407;44.966;19.622;2023-07-13T07:52:41;11.63;;;4.95;;
80101;SDS011;69407;44.966;19.622;2023-07-13T07:55:07;9.40;;;4.93;;
80101;SDS011;69407;44.966;19.622;2023-07-13T07:57:33;13.18;;;4.65;;
80101;SDS011;69407;44.966;19.622;2023-07-13T07:59:59;16.73;;;5.20;;
80101;SDS011;69407;44.966;19.622;2023-07-13T08:02:25;9.35;;;4.35;;
80101;SDS011;69407;44.966;19.622;2023-07-13T08:04:50;12.15;;;5.03;;
80101;SDS011;69407;44.966;19.622;2023-07-13T08:07:17;10.82;;;4.72;;
80101;SDS011;69407;44.966;19.622;2023-07-13T08:09:43;13.25;;;4.68;;
80101;SDS011;69407;44.966;19.622;2023-07-13T08:12:08;16.38;;;4.75;;
80101;SDS011;69407;44.966;19.622;2023-07-13T08:14:34;8.27;;;4.07;;
80101;SDS011;69407;44.966;19.622;2023-07-13T08:16:59;15.52;;;4.38;;
80101;SDS011;69407;44.966;19.622;2023-07-13T08:19:25;12.70;;;4.60;;
80101;SDS011;69407;44.966;19.622;2023-07-13T08:21:50;15.80;;;5.68;;
80101;SDS011;69407;44.966;19.622;2023-07-13T08:24:16;15.27;;;4.85;;
80101;SDS011;69407;44.966;19.622;2023-07-13T08:26:43;10.02;;;5.63;;
80101;SDS011;69407;44.966;19.622;2023-07-13T08:29:10;9.57;;;5.35;;
80101;SDS011;69407;44.966;19.622;2023-07-13T08:31:35;9.10;;;4.90;;
80101;SDS011;69407;44.966;19.622;2023-07-13T08:34:01;12.52;;;4.38;;
80101;SDS011;69407;44.966;19.622;2023-07-13T08:36:27;12.75;;;4.55;;
80101;SDS011;69407;44.966;19.622;2023-07-13T08:38:53;12.30;;;5.50;;
80101;SDS011;69407;44.966;19.622;2023-07-13T08:41:19;11.55;;;4.47;;
80101;SDS011;69407;44.966;19.622;2023-07-13T08:43:46;10.23;;;4.30;;
80101;SDS011;69407;44.966;19.622;2023-07-13T08:46:19;17.05;;;5.00;;
80101;SDS011;69407;44.966;19.622;2023-07-13T08:48:52;12.65;;;5.45;;
80101;SDS011;69407;44.966;19.622;2023-07-13T08:51:35;15.15;;;4.82;;
80101;SDS011;69407;44.966;19.622;2023-07-13T08:54:03;13.73;;;5.07;;
80101;SDS011;69407;44.966;19.622;2023-07-13T08:56:35;14.95;;;4.95;;
80101;SDS011;69407;44.966;19.622;2023-07-13T08:59:11;10.43;;;4.38;;
80101;SDS011;69407;44.966;19.622;2023-07-13T09:01:50;12.57;;;4.38;;
80101;SDS011;69407;44.966;19.622;2023-07-13T09:17:56;11.60;;;4.45;;
80101;SDS011;69407;44.966;19.622;2023-07-13T09:20:31;12.70;;;4.65;;
80101;SDS011;69407;44.966;19.622;2023-07-13T09:23:01;11.80;;;4.43;;
80101;SDS011;69407;44.966;19.622;2023-07-13T09:25:33;18.40;;;5.10;;
80101;SDS011;69407;44.966;19.622;2023-07-13T09:28:02;15.45;;;5.30;;
80101;SDS011;69407;44.966;19.622;2023-07-13T09:33:39;14.57;;;7.40;;
80101;SDS011;69407;44.966;19.622;2023-07-13T09:38:59;12.50;;;4.95;;
80101;SDS011;69407;44.966;19.622;2023-07-13T09:42:06;10.57;;;5.55;;
80101;SDS011;69407;44.966;19.622;2023-07-13T09:44:28;16.20;;;6.00;;
80101;SDS011;69407;44.966;19.622;2023-07-13T09:47:00;12.65;;;5.85;;
80101;SDS011;69407;44.966;19.622;2023-07-13T09:49:28;17.05;;;6.05;;
80101;SDS011;69407;44.966;19.622;2023-07-13T09:52:10;13.25;;;5.20;;
80101;SDS011;69407;44.966;19.622;2023-07-13T09:54:37;14.77;;;6.05;;
80101;SDS011;69407;44.966;19.622;2023-07-13T09:57:08;12.55;;;5.32;;
80101;SDS011;69407;44.966;19.622;2023-07-13T09:59:56;13.52;;;5.30;;
80101;SDS011;69407;44.966;19.622;2023-07-13T10:02:28;14.25;;;5.32;;
80101;SDS011;69407;44.966;19.622;2023-07-13T10:05:00;8.82;;;5.22;;
80101;SDS011;69407;44.966;19.622;2023-07-13T10:07:39;14.75;;;5.75;;
80101;SDS011;69407;44.966;19.622;2023-07-13T10:10:15;11.15;;;4.47;;
80101;SDS011;69407;44.966;19.622;2023-07-13T10:12:46;13.95;;;4.65;;
80101;SDS011;69407;44.966;19.622;2023-07-13T10:15:24;13.73;;;5.10;;
80101;SDS011;69407;44.966;19.622;2023-07-13T10:17:52;16.10;;;5.63;;
80101;SDS011;69407;44.966;19.622;2023-07-13T10:20:20;13.20;;;5.07;;
80101;SDS011;69407;44.966;19.622;2023-07-13T10:22:49;10.88;;;5.53;;
80101;SDS011;69407;44.966;19.622;2023-07-13T10:25:20;16.67;;;5.85;;
80101;SDS011;69407;44.966;19.622;2023-07-13T10:27:48;12.70;;;5.63;;
80101;SDS011;69407;44.966;19.622;2023-07-13T10:30:35;12.23;;;4.78;;
80101;SDS011;69407;44.966;19.622;2023-07-13T10:33:08;12.55;;;5.10;;
80101;SDS011;69407;44.966;19.622;2023-07-13T10:35:36;13.70;;;5.50;;
80101;SDS011;69407;44.966;19.622;2023-07-13T10:38:05;12.93;;;5.50;;
80101;SDS011;69407;44.966;19.622;2023-07-13T10:43:22;9.88;;;5.40;;
80101;SDS011;69407;44.966;19.622;2023-07-13T10:45:52;9.48;;;5.07;;
80101;SDS011;69407;44.966;19.622;2023-07-13T10:48:19;11.88;;;4.80;;
80101;SDS011;69407;44.966;19.622;2023-07-13T10:50:48;6.78;;;5.03;;
80101;SDS011;69407;44.966;19.622;2023-07-13T10:58:23;16.65;;;6.20;;
80101;SDS011;69407;44.966;19.622;2023-07-13T11:01:06;11.25;;;5.47;;
80101;SDS011;69407;44.966;19.622;2023-07-13T11:03:55;11.57;;;5.60;;
80101;SDS011;69407;44.966;19.622;2023-07-13T11:08:57;11.77;;;5.00;;
80101;SDS011;69407;44.966;19.622;2023-07-13T11:18:51;10.60;;;5.20;;
80101;SDS011;69407;44.966;19.622;2023-07-13T11:21:33;12.15;;;4.70;;
80101;SDS011;69407;44.966;19.622;2023-07-13T11:24:03;10.27;;;4.90;;
80101;SDS011;69407;44.966;19.622;2023-07-13T11:31:58;9.40;;;4.72;;
80101;SDS011;69407;44.966;19.622;2023-07-13T11:34:34;13.43;;;5.35;;
80101;SDS011;69407;44.966;19.622;2023-07-13T11:37:03;13.00;;;5.13;;
80101;SDS011;69407;44.966;19.622;2023-07-13T11:39:30;8.13;;;5.28;;
80101;SDS011;69407;44.966;19.622;2023-07-13T11:42:02;9.38;;;5.65;;
80101;SDS011;69407;44.966;19.622;2023-07-13T11:44:30;11.50;;;5.35;;
80101;SDS011;69407;44.966;19.622;2023-07-13T11:46:59;10.75;;;5.10;;
80101;SDS011;69407;44.966;19.622;2023-07-13T11:49:36;11.18;;;4.65;;
80101;SDS011;69407;44.966;19.622;2023-07-13T11:52:11;12.60;;;4.90;;
80101;SDS011;69407;44.966;19.622;2023-07-13T11:54:48;12.90;;;4.90;;
80101;SDS011;69407;44.966;19.622;2023-07-13T11:59:49;9.45;;;4.85;;
80101;SDS011;69407;44.966;19.622;2023-07-13T12:02:22;11.25;;;4.55;;
80101;SDS011;69407;44.966;19.622;2023-07-13T12:04:54;12.93;;;4.97;;
80101;SDS011;69407;44.966;19.622;2023-07-13T12:07:20;7.07;;;4.60;;
80101;SDS011;69407;44.966;19.622;2023-07-13T12:09:45;9.02;;;5.32;;
80101;SDS011;69407;44.966;19.622;2023-07-13T12:12:16;12.00;;;4.68;;
80101;SDS011;69407;44.966;19.622;2023-07-13T12:14:44;12.90;;;5.30;;
80101;SDS011;69407;44.966;19.622;2023-07-13T12:17:16;12.20;;;5.07;;
80101;SDS011;69407;44.966;19.622;2023-07-13T12:19:46;11.40;;;5.32;;
80101;SDS011;69407;44.966;19.622;2023-07-13T12:22:13;11.55;;;5.45;;
80101;SDS011;69407;44.966;19.622;2023-07-13T12:24:41;9.27;;;4.18;;
80101;SDS011;69407;44.966;19.622;2023-07-13T12:27:40;9.98;;;5.13;;
80101;SDS011;69407;44.966;19.622;2023-07-13T12:30:00;10.25;;;5.13;;
80101;SDS011;69407;44.966;19.622;2023-07-13T12:32:28;8.30;;;4.50;;
80101;SDS011;69407;44.966;19.622;2023-07-13T12:34:56;11.82;;;4.95;;
80101;SDS011;69407;44.966;19.622;2023-07-13T12:37:41;8.10;;;4.28;;
80101;SDS011;69407;44.966;19.622;2023-07-13T12:40:17;11.75;;;5.60;;
80101;SDS011;69407;44.966;19.622;2023-07-13T12:42:46;9.63;;;4.47;;
80101;SDS011;69407;44.966;19.622;2023-07-13T12:47:47;7.10;;;4.50;;
80101;SDS011;69407;44.966;19.622;2023-07-13T12:50:15;12.32;;;4.20;;
80101;SDS011;69407;44.966;19.622;2023-07-13T12:52:43;9.52;;;4.13;;
80101;SDS011;69407;44.966;19.622;2023-07-13T12:55:19;12.80;;;4.63;;
80101;SDS011;69407;44.966;19.622;2023-07-13T12:57:50;10.98;;;4.07;;
80101;SDS011;69407;44.966;19.622;2023-07-13T13:00:26;8.65;;;4.03;;
80101;SDS011;69407;44.966;19.622;2023-07-13T13:02:57;10.52;;;3.45;;
80101;SDS011;69407;44.966;19.622;2023-07-13T13:05:28;11.50;;;3.10;;
80101;SDS011;69407;44.966;19.622;2023-07-13T13:07:55;6.10;;;3.10;;
80101;SDS011;69407;44.966;19.622;2023-07-13T13:10:20;8.13;;;3.05;;
80101;SDS011;69407;44.966;19.622;2023-07-13T13:12:46;5.50;;;2.20;;
80101;SDS011;69407;44.966;19.622;2023-07-13T13:15:13;5.22;;;2.20;;
80101;SDS011;69407;44.966;19.622;2023-07-13T13:17:38;7.10;;;2.20;;
80101;SDS011;69407;44.966;19.622;2023-07-13T13:20:13;5.72;;;2.42;;
80101;SDS011;69407;44.966;19.622;2023-07-13T13:22:43;6.50;;;2.30;;
80101;SDS011;69407;44.966;19.622;2023-07-13T13:25:12;6.78;;;1.65;;
80101;SDS011;69407;44.966;19.622;2023-07-13T13:27:40;6.20;;;2.45;;
80101;SDS011;69407;44.966;19.622;2023-07-13T13:30:16;11.68;;;2.65;;
80101;SDS011;69407;44.966;19.622;2023-07-13T13:32:44;7.05;;;2.00;;
80101;SDS011;69407;44.966;19.622;2023-07-13T13:35:15;4.95;;;2.00;;
80101;SDS011;69407;44.966;19.622;2023-07-13T13:37:45;3.00;;;1.30;;
80101;SDS011;69407;44.966;19.622;2023-07-13T13:40:20;6.65;;;2.25;;
80101;SDS011;69407;44.966;19.622;2023-07-13T13:42:49;5.38;;;1.52;;
80101;SDS011;69407;44.966;19.622;2023-07-13T13:45:19;7.50;;;2.03;;
80101;SDS011;69407;44.966;19.622;2023-07-13T13:47:46;8.48;;;2.20;;
80101;SDS011;69407;44.966;19.622;2023-07-13T13:50:14;9.32;;;1.65;;
80101;SDS011;69407;44.966;19.622;2023-07-13T13:52:41;6.88;;;2.22;;
80101;SDS011;69407;44.966;19.622;2023-07-13T13:57:40;8.73;;;2.17;;
80101;SDS011;69407;44.966;19.622;2023-07-13T14:00:07;7.45;;;1.80;;
80101;SDS011;69407;44.966;19.622;2023-07-13T14:02:39;6.30;;;2.47;;
80101;SDS011;69407;44.966;19.622;2023-07-13T14:05:09;8.65;;;2.25;;
80101;SDS011;69407;44.966;19.622;2023-07-13T14:07:37;5.45;;;2.38;;
80101;SDS011;69407;44.966;19.622;2023-07-13T14:10:08;4.20;;;2.17;;
80101;SDS011;69407;44.966;19.622;2023-07-13T14:12:37;10.45;;;2.38;;
80101;SDS011;69407;44.966;19.622;2023-07-13T14:15:03;7.35;;;2.15;;
80101;SDS011;69407;44.966;19.622;2023-07-13T14:17:35;8.48;;;2.47;;
80101;SDS011;69407;44.966;19.622;2023-07-13T14:20:00;11.82;;;2.42;;
80101;SDS011;69407;44.966;19.622;2023-07-13T14:22:29;8.00;;;2.20;;
80101;SDS011;69407;44.966;19.622;2023-07-13T14:24:55;7.80;;;2.30;;
80101;SDS011;69407;44.966;19.622;2023-07-13T14:27:22;6.75;;;2.75;;
80101;SDS011;69407;44.966;19.622;2023-07-13T14:29:48;7.70;;;2.50;;
80101;SDS011;69407;44.966;19.622;2023-07-13T14:32:13;10.45;;;2.67;;
80101;SDS011;69407;44.966;19.622;2023-07-13T14:34:39;8.20;;;2.97;;
80101;SDS011;69407;44.966;19.622;2023-07-13T14:37:05;8.60;;;2.97;;
80101;SDS011;69407;44.966;19.622;2023-07-13T14:39:37;5.68;;;2.45;;
80101;SDS011;69407;44.966;19.622;2023-07-13T14:42:03;7.97;;;2.53;;
80101;SDS011;69407;44.966;19.622;2023-07-13T14:44:30;8.98;;;2.78;;
80101;SDS011;69407;44.966;19.622;2023-07-13T14:46:59;6.25;;;2.70;;
80101;SDS011;69407;44.966;19.622;2023-07-13T14:49:36;5.82;;;2.75;;
80101;SDS011;69407;44.966;19.622;2023-07-13T14:52:17;6.70;;;3.20;;
80101;SDS011;69407;44.966;19.622;2023-07-13T14:54:45;6.03;;;2.80;;
80101;SDS011;69407;44.966;19.622;2023-07-13T14:57:18;8.15;;;3.10;;
80101;SDS011;69407;44.966;19.622;2023-07-13T15:07:22;7.88;;;3.03;;
80101;SDS011;69407;44.966;19.622;2023-07-13T15:09:48;6.90;;;2.45;;
80101;SDS011;69407;44.966;19.622;2023-07-13T15:12:14;10.00;;;2.80;;
80101;SDS011;69407;44.966;19.622;2023-07-13T15:14:41;7.07;;;3.00;;
80101;SDS011;69407;44.966;19.622;2023-07-13T15:17:16;5.20;;;2.85;;
80101;SDS011;69407;44.966;19.622;2023-07-13T15:23:00;7.20;;;3.28;;
80101;SDS011;69407;44.966;19.622;2023-07-13T15:25:27;9.93;;;2.60;;
80101;SDS011;69407;44.966;19.622;2023-07-13T15:27:55;9.32;;;3.30;;
80101;SDS011;69407;44.966;19.622;2023-07-13T15:30:24;7.13;;;3.38;;
80101;SDS011;69407;44.966;19.622;2023-07-13T15:32:52;9.38;;;3.88;;
80101;SDS011;69407;44.966;19.622;2023-07-13T15:35:19;8.68;;;3.33;;
80101;SDS011;69407;44.966;19.622;2023-07-13T15:37:47;9.05;;;3.60;;
80101;SDS011;69407;44.966;19.622;2023-07-13T15:40:13;10.48;;;3.90;;